Time;durP1;ratioP1;P1;durP2;ratioP2;P2;SDS_P1;SDS_P2;PMS_P1;PMS_P2;Temp;Humidity;BMP_temperature;BMP_pressure;BME280_temperature;BME280_humidity;BME280_pressure;Samples;Min_cycle;Max_cycle;Signal;HPM_P1;HPM_P2
2021/10/19 04:49:58;;;;;;;5.20;3.63;;;6.00;97.50;;;;;;5894557;22;20253;-88
2021/10/19 04:55:50;;;;;;;4.17;3.63;;;6.10;97.40;;;;;;5056495;28;20228;-88
2021/10/19 04:58:36;;;;;;;3.83;3.43;;;6.10;97.40;;;;;;5056563;28;20186;-88
2021/10/19 05:01:03;;;;;;;4.50;3.77;;;6.00;97.70;;;;;;5047648;28;20227;-90
2021/10/19 05:03:29;;;;;;;6.53;3.57;;;5.90;97.90;;;;;;5049757;28;20206;-89
2021/10/19 05:09:20;;;;;;;6.30;3.67;;;6.00;97.90;;;;;;5036460;28;20275;-91
2021/10/19 05:11:47;;;;;;;5.30;3.53;;;6.10;97.70;;;;;;5053274;28;20218;-89
2021/10/19 05:14:22;;;;;;;4.10;3.70;;;6.10;97.50;;;;;;5198275;22;20324;-89
2021/10/19 05:16:49;;;;;;;4.87;3.80;;;6.00;97.60;;;;;;5034009;28;20198;-91
2021/10/19 05:19:16;;;;;;;4.77;3.77;;;6.10;97.70;;;;;;5038733;28;20209;-88
2021/10/19 05:21:43;;;;;;;4.50;3.87;;;6.10;97.60;;;;;;5037333;28;20316;-88
2021/10/19 05:24:10;;;;;;;4.93;3.80;;;6.10;97.60;;;;;;5038322;28;20199;-88
2021/10/19 05:26:38;;;;;;;4.37;3.87;;;6.10;97.70;;;;;;5042348;28;20217;-91
2021/10/19 05:29:06;;;;;;;4.67;4.00;;;6.10;97.60;;;;;;5036923;28;20195;-93
2021/10/19 05:31:33;;;;;;;4.97;3.83;;;6.20;97.40;;;;;;5040401;28;20197;-89
2021/10/19 05:34:00;;;;;;;4.53;3.90;;;6.20;97.40;;;;;;5036894;28;20289;-90
2021/10/19 05:36:27;;;;;;;6.37;4.20;;;6.20;97.30;;;;;;5041148;28;20228;-89
2021/10/19 05:38:54;;;;;;;4.87;3.80;;;6.10;97.40;;;;;;5040496;28;20738;-90
2021/10/19 05:41:21;;;;;;;5.60;4.00;;;6.10;97.70;;;;;;5047927;28;20221;-90
2021/10/19 05:43:49;;;;;;;4.80;4.13;;;6.10;97.60;;;;;;5035431;28;20213;-90
2021/10/19 05:46:16;;;;;;;8.30;4.03;;;6.20;97.50;;;;;;5039485;28;20309;-90
2021/10/19 05:48:43;;;;;;;6.10;4.63;;;6.30;97.40;;;;;;5034168;28;20198;-90
2021/10/19 05:51:22;;;;;;;4.83;3.97;;;6.40;97.40;;;;;;5036333;28;20236;-90
2021/10/19 05:53:52;;;;;;;6.53;3.80;;;6.40;97.20;;;;;;5035737;28;20228;-90
2021/10/19 05:56:19;;;;;;;4.83;3.67;;;6.50;97.20;;;;;;5040636;28;20206;-90
2021/10/19 05:58:46;;;;;;;5.63;3.80;;;6.50;97.10;;;;;;5035859;28;20199;-90
2021/10/19 06:08:07;;;;;;;5.70;3.47;;;6.40;97.60;;;;;;5042402;28;20606;-91
2021/10/19 06:10:35;;;;;;;4.03;3.20;;;6.60;97.60;;;;;;5045599;28;20234;-90
2021/10/19 06:15:40;;;;;;;5.03;3.30;;;6.80;96.80;;;;;;4998528;23;20235;-90
2021/10/19 06:18:07;;;;;;;5.50;3.23;;;6.90;96.60;;;;;;4995534;28;20215;-91
2021/10/19 06:20:34;;;;;;;3.93;2.87;;;6.90;96.60;;;;;;4983084;28;20232;-90
2021/10/19 06:40:41;;;;;;;6.57;3.53;;;7.50;96.40;;;;;;4981653;28;20584;-90
2021/10/19 07:50:15;;;;;;;3.53;3.03;;;10.70;93.30;;;;;;5026534;28;20222;-92
2021/10/19 07:53:04;;;;;;;6.90;4.07;;;10.80;93.40;;;;;;4973316;28;20234;-90
2021/10/19 07:59:46;;;;;;;4.35;3.55;;;11.20;92.70;;;;;;5022495;28;20217;-92
2021/10/19 08:02:16;;;;;;;4.55;3.28;;;11.30;92.70;;;;;;5025640;28;20231;-91
2021/10/19 08:04:44;;;;;;;3.15;2.65;;;11.30;92.60;;;;;;5026570;28;20215;-89
2021/10/19 10:16:23;;;;;;;6.20;2.30;;;13.60;83.10;;;;;;5013053;28;20603;-90
2021/10/19 10:18:52;;;;;;;4.28;2.90;;;13.70;80.80;;;;;;5012680;28;20623;-91
2021/10/19 10:21:21;;;;;;;3.80;2.50;;;13.60;83.20;;;;;;5013925;28;20705;-91
2021/10/19 10:24:00;;;;;;;4.47;2.60;;;13.70;82.70;;;;;;5015120;28;20269;-90
2021/10/19 10:26:28;;;;;;;3.47;2.40;;;13.80;85.10;;;;;;5015351;28;20235;-90
2021/10/19 10:29:06;;;;;;;3.40;2.67;;;13.70;82.70;;;;;;5015628;28;20528;-90
2021/10/19 10:31:44;;;;;;;6.40;2.70;;;13.80;83.80;;;;;;5014970;28;20694;-91
2021/10/19 10:34:13;;;;;;;3.13;2.60;;;14.00;84.40;;;;;;5012679;28;20207;-90
2021/10/19 10:36:45;;;;;;;4.43;2.97;;;14.00;84.50;;;;;;5013910;28;20641;-92
2021/10/19 10:39:13;;;;;;;3.47;2.55;;;14.00;85.70;;;;;;5010437;28;20250;-91
2021/10/19 10:41:43;;;;;;;3.03;2.55;;;14.10;87.40;;;;;;5014591;28;20235;-91
2021/10/19 10:44:12;;;;;;;7.00;3.42;;;14.20;86.80;;;;;;5015204;28;20580;-92
2021/10/19 10:46:40;;;;;;;4.30;2.60;;;14.30;86.60;;;;;;5023195;28;20767;-90
2021/10/19 10:49:11;;;;;;;3.05;2.58;;;14.30;87.40;;;;;;5023427;28;20206;-91
2021/10/19 10:51:42;;;;;;;6.63;2.78;;;14.20;89.10;;;;;;5013927;28;20679;-89
2021/10/19 13:24:30;;;;;;;3.95;3.55;;;16.70;50.50;;;;;;6113228;22;20192;-88
2021/10/19 13:26:57;;;;;;;3.33;2.70;;;16.70;49.90;;;;;;5039816;28;20213;-88
2021/10/19 13:32:53;;;;;;;4.32;3.08;;;16.50;47.80;;;;;;5039018;28;20222;-90
2021/10/19 13:35:20;;;;;;;5.45;2.95;;;16.40;48.10;;;;;;5044172;28;20245;-88
2021/10/19 13:37:47;;;;;;;5.72;3.03;;;16.40;47.40;;;;;;5043880;28;20219;-90
2021/10/19 13:40:17;;;;;;;4.45;3.05;;;16.30;48.60;;;;;;5047316;28;20218;-90
2021/10/19 13:42:45;;;;;;;5.45;2.90;;;16.20;48.90;;;;;;5053946;28;20202;-89
2021/10/19 13:45:12;;;;;;;3.40;2.65;;;16.10;49.30;;;;;;5063929;28;20294;-88
2021/10/19 13:47:39;;;;;;;3.83;2.60;;;16.10;49.20;;;;;;5066041;28;20249;-86
2021/10/19 13:57:53;;;;;;;3.65;2.47;;;16.10;52.30;;;;;;5059081;28;20193;-85
2021/10/19 14:00:22;;;;;;;3.67;2.95;;;16.10;52.30;;;;;;5063796;28;20200;-85
2021/10/19 14:02:48;;;;;;;3.67;2.78;;;16.00;52.30;;;;;;5064309;28;20190;-86
2021/10/19 14:08:56;;;;;;;4.00;2.72;;;16.10;54.00;;;;;;5064359;28;20182;-87
2021/10/19 14:11:23;;;;;;;3.45;2.90;;;16.20;52.60;;;;;;5032126;28;20238;-87
2021/10/19 14:14:28;;;;;;;3.42;2.90;;;16.30;52.50;;;;;;5051084;23;20231;-85
2021/10/19 14:16:56;;;;;;;4.80;2.88;;;16.40;52.70;;;;;;5042744;28;20241;-86
2021/10/19 14:20:07;;;;;;;5.18;2.90;;;16.50;50.00;;;;;;5044068;28;20195;-88
2021/10/19 14:26:25;;;;;;;5.90;3.00;;;16.60;50.70;;;;;;5045091;28;20194;-88
2021/10/19 14:29:31;;;;;;;3.95;3.10;;;16.40;50.70;;;;;;5043367;28;20280;-88
2021/10/19 14:42:44;;;;;;;3.92;2.60;;;16.40;49.40;;;;;;5027540;28;20207;-88
2021/10/19 14:45:12;;;;;;;6.18;3.47;;;16.30;51.30;;;;;;5041252;28;20262;-89
2021/10/19 14:47:39;;;;;;;4.70;2.70;;;16.20;52.40;;;;;;5043203;28;20187;-87
2021/10/19 14:50:08;;;;;;;4.00;2.70;;;16.10;52.30;;;;;;5042946;28;20257;-87
2021/10/19 14:56:44;;;;;;;4.10;2.83;;;15.80;53.20;;;;;;5039824;28;20189;-88
2021/10/19 14:59:13;;;;;;;4.22;2.70;;;15.60;56.00;;;;;;5041839;28;20199;-87
2021/10/19 15:01:40;;;;;;;3.97;3.08;;;15.60;57.60;;;;;;5048101;28;20214;-87
2021/10/19 15:04:53;;;;;;;4.65;3.40;;;15.50;58.70;;;;;;5045749;28;20272;-88
2021/10/19 15:32:17;;;;;;;5.63;3.00;;;15.10;61.50;;;;;;5106905;23;20234;-89
2021/10/19 15:34:44;;;;;;;4.18;2.95;;;15.00;63.20;;;;;;5014048;28;20188;-88
2021/10/19 15:37:11;;;;;;;3.83;2.75;;;15.10;64.00;;;;;;5016658;28;20584;-88
2021/10/19 15:39:38;;;;;;;8.82;3.33;;;15.00;64.10;;;;;;5018577;28;20203;-91
2021/10/19 15:45:32;;;;;;;5.90;3.10;;;14.80;69.60;;;;;;5024352;28;20229;-89
2021/10/19 15:48:00;;;;;;;4.85;2.92;;;14.70;65.90;;;;;;5025161;28;20661;-89
2021/10/19 15:50:27;;;;;;;3.28;2.63;;;14.70;66.40;;;;;;5042980;28;20290;-88
2021/10/19 15:52:56;;;;;;;3.80;2.83;;;14.70;65.70;;;;;;5037249;28;20191;-90
2021/10/19 15:55:23;;;;;;;3.38;2.75;;;14.70;65.50;;;;;;5021637;28;20225;-90
2021/10/19 15:57:50;;;;;;;3.50;3.03;;;14.70;66.40;;;;;;5022026;28;20209;-90
2021/10/19 16:00:18;;;;;;;5.15;3.05;;;14.70;64.40;;;;;;5020566;28;20301;-92
2021/10/19 16:02:48;;;;;;;3.90;3.10;;;14.60;66.10;;;;;;5025413;28;20208;-90
2021/10/19 16:05:17;;;;;;;3.95;2.80;;;14.70;66.60;;;;;;5015899;28;20314;-90
2021/10/19 16:07:44;;;;;;;3.35;2.80;;;14.60;66.70;;;;;;5015208;28;20222;-91
2021/10/19 16:10:14;;;;;;;3.72;2.70;;;14.60;67.20;;;;;;5024960;28;20219;-89
2021/10/19 16:12:41;;;;;;;3.80;2.90;;;14.60;69.20;;;;;;5028106;28;20836;-90
2021/10/19 16:15:08;;;;;;;3.08;2.60;;;14.60;70.10;;;;;;5025569;28;20242;-90
2021/10/19 16:17:35;;;;;;;6.65;4.13;;;14.60;71.20;;;;;;5023135;28;20549;-88
2021/10/19 16:20:02;;;;;;;4.43;3.40;;;14.50;72.60;;;;;;5023398;28;20230;-90
2021/10/19 16:22:30;;;;;;;5.22;3.10;;;14.50;72.90;;;;;;5013556;28;20203;-89
2021/10/19 16:24:57;;;;;;;3.95;3.15;;;14.50;75.20;;;;;;5022687;28;20237;-90
2021/10/19 16:27:25;;;;;;;4.85;3.50;;;14.50;75.80;;;;;;5017681;28;20266;-88
2021/10/19 16:29:52;;;;;;;7.25;3.80;;;14.40;76.90;;;;;;5018540;28;20246;-90
2021/10/19 16:32:19;;;;;;;5.13;3.75;;;14.30;76.80;;;;;;5018285;28;20234;-88
2021/10/19 16:34:47;;;;;;;6.70;3.70;;;14.30;76.80;;;;;;5016207;28;20253;-90
2021/10/19 16:37:14;;;;;;;5.78;3.78;;;14.20;79.60;;;;;;5020045;28;20212;-89
2021/10/19 16:39:43;;;;;;;5.20;3.30;;;14.20;79.60;;;;;;5017507;28;20286;-87
2021/10/19 16:42:10;;;;;;;4.45;2.88;;;14.20;79.60;;;;;;5020701;28;20203;-90
2021/10/19 16:44:36;;;;;;;2.67;2.25;;;14.30;79.30;;;;;;5017168;28;20210;-87
2021/10/19 16:47:06;;;;;;;3.38;2.30;;;14.50;72.60;;;;;;5018715;28;20562;-87
2021/10/19 16:53:12;;;;;;;2.30;1.95;;;14.60;69.90;;;;;;5028361;28;20669;-87
2021/10/19 16:55:40;;;;;;;7.50;5.97;;;14.70;67.70;;;;;;5030129;28;20325;-92
2021/10/19 16:58:07;;;;;;;4.55;1.80;;;14.80;67.20;;;;;;5025291;28;20199;-89
2021/10/19 17:04:30;;;;;;;2.38;1.80;;;14.80;66.80;;;;;;5018908;28;20532;-89
2021/10/19 17:06:58;;;;;;;2.80;1.85;;;14.90;64.80;;;;;;5016169;28;20290;-89
2021/10/19 17:09:25;;;;;;;1.45;1.35;;;14.80;64.00;;;;;;5019498;28;20290;-89
2021/10/19 17:40:19;;;;;;;1.65;1.42;;;14.40;66.90;;;;;;5062620;23;20304;-90
2021/10/19 17:42:45;;;;;;;1.50;1.40;;;14.40;67.70;;;;;;5006426;28;20226;-87
2021/10/19 17:45:13;;;;;;;2.45;1.40;;;14.40;67.90;;;;;;5020579;28;20257;-90
2021/10/19 17:47:44;;;;;;;1.60;1.50;;;14.40;68.30;;;;;;5018523;28;20253;-89
2021/10/19 17:50:11;;;;;;;1.42;1.33;;;14.30;67.70;;;;;;5017387;28;20289;-89
2021/10/19 17:52:38;;;;;;;1.50;1.33;;;14.30;68.60;;;;;;5020666;28;20231;-89
2021/10/19 17:59:17;;;;;;;1.63;1.40;;;14.20;69.20;;;;;;5019841;28;20294;-89
2021/10/19 18:01:46;;;;;;;1.33;1.23;;;14.20;69.00;;;;;;5015059;28;20278;-90
2021/10/19 18:04:28;;;;;;;1.30;1.20;;;14.20;68.90;;;;;;5020077;28;20673;-89
2021/10/19 18:10:18;;;;;;;2.10;1.83;;;14.10;68.80;;;;;;5019515;28;20163;-90
2021/10/19 18:13:21;;;;;;;3.05;1.45;;;14.10;69.80;;;;;;5017235;28;20326;-89
2021/10/19 18:15:48;;;;;;;2.72;1.73;;;14.20;70.90;;;;;;5018202;28;20309;-89
2021/10/19 18:18:16;;;;;;;2.13;1.83;;;14.10;70.00;;;;;;5018636;28;20241;-89
2021/10/19 18:20:43;;;;;;;2.22;2.03;;;14.10;71.00;;;;;;5016877;28;20595;-88
2021/10/19 18:23:12;;;;;;;3.10;1.90;;;14.10;71.70;;;;;;5020233;28;20194;-88
2021/10/19 18:25:39;;;;;;;2.22;1.75;;;14.10;70.40;;;;;;5019962;28;20227;-88
2021/10/19 18:28:07;;;;;;;2.53;1.80;;;14.10;72.40;;;;;;5020743;28;20203;-88
2021/10/19 18:30:39;;;;;;;1.65;1.55;;;14.10;70.30;;;;;;5019629;28;20600;-89
2021/10/19 18:33:06;;;;;;;3.40;1.75;;;14.10;71.60;;;;;;5020071;28;20277;-89
2021/10/19 18:39:31;;;;;;;2.17;1.90;;;14.00;73.30;;;;;;5039992;28;20190;-89
2021/10/19 18:42:42;;;;;;;1.88;1.67;;;14.10;72.90;;;;;;5013755;28;20678;-88
2021/10/19 18:45:12;;;;;;;1.75;1.63;;;14.00;74.10;;;;;;5038511;28;20237;-90
2021/10/19 18:47:40;;;;;;;2.13;1.80;;;13.90;75.20;;;;;;5033044;28;20221;-89
2021/10/19 18:50:13;;;;;;;4.15;1.80;;;13.90;76.50;;;;;;5025978;28;20721;-89
2021/10/19 18:52:40;;;;;;;2.00;1.50;;;13.90;76.50;;;;;;5022841;28;20230;-88
2021/10/19 18:55:08;;;;;;;1.98;1.80;;;13.90;76.50;;;;;;5022009;28;20269;-88
2021/10/19 18:57:35;;;;;;;2.15;1.85;;;13.90;76.50;;;;;;5022671;28;20234;-89
2021/10/19 19:00:11;;;;;;;2.53;1.70;;;13.90;76.50;;;;;;5028305;28;20226;-90
2021/10/19 19:02:39;;;;;;;2.53;1.90;;;14.00;76.60;;;;;;5020238;28;20259;-90
2021/10/19 19:05:23;;;;;;;2.53;2.00;;;13.90;76.50;;;;;;5018358;28;20231;-88
2021/10/19 19:07:50;;;;;;;1.70;1.60;;;13.90;76.50;;;;;;5021236;28;20199;-89
2021/10/19 19:10:17;;;;;;;2.10;1.90;;;14.00;76.60;;;;;;5019560;28;20314;-89
2021/10/19 19:12:52;;;;;;;2.00;1.80;;;14.00;76.60;;;;;;5026335;28;20239;-88
2021/10/19 19:15:22;;;;;;;3.92;2.10;;;14.10;76.60;;;;;;5022928;28;20229;-90
2021/10/19 19:17:50;;;;;;;2.70;2.10;;;14.00;76.60;;;;;;5034899;28;20277;-89
2021/10/19 19:20:21;;;;;;;2.17;1.98;;;14.00;77.10;;;;;;5032129;28;20314;-87
2021/10/19 19:23:08;;;;;;;3.90;2.38;;;14.00;78.70;;;;;;5031804;28;20223;-88
2021/10/19 19:25:35;;;;;;;3.20;2.10;;;13.90;78.20;;;;;;5017914;28;20230;-91
2021/10/19 19:28:07;;;;;;;2.35;2.08;;;13.90;78.30;;;;;;5026552;28;20222;-88
2021/10/19 19:30:36;;;;;;;2.80;2.20;;;13.90;79.30;;;;;;5023939;28;20218;-90
2021/10/19 19:33:03;;;;;;;5.47;2.58;;;13.90;80.50;;;;;;5017116;28;20314;-89
2021/10/19 19:35:31;;;;;;;3.78;2.80;;;13.90;80.50;;;;;;5030358;28;20301;-91
2021/10/19 19:37:58;;;;;;;3.80;2.50;;;13.90;81.60;;;;;;5019136;28;20199;-88
2021/10/19 19:40:26;;;;;;;3.10;2.80;;;13.90;82.00;;;;;;5016792;28;20231;-91
2021/10/19 19:42:54;;;;;;;2.95;2.65;;;13.90;83.60;;;;;;5020700;28;20229;-90
2021/10/19 19:45:21;;;;;;;2.33;2.13;;;13.90;83.30;;;;;;5022323;28;20656;-88
2021/10/19 19:47:51;;;;;;;2.40;2.20;;;13.90;81.80;;;;;;5021871;28;20208;-89
2021/10/19 19:50:21;;;;;;;2.55;2.35;;;13.90;82.00;;;;;;5021401;28;20241;-90
2021/10/19 19:52:49;;;;;;;4.32;2.40;;;13.90;82.80;;;;;;5016184;28;20222;-89
2021/10/19 19:55:16;;;;;;;2.50;2.30;;;13.90;82.30;;;;;;5016867;28;20226;-91
2021/10/19 19:57:44;;;;;;;3.33;2.30;;;14.00;83.40;;;;;;5015747;28;20191;-90
2021/10/19 20:00:13;;;;;;;2.85;2.20;;;14.00;83.90;;;;;;5016803;28;20293;-89
2021/10/19 20:02:41;;;;;;;2.50;2.28;;;14.00;83.60;;;;;;5017322;28;20195;-88
2021/10/19 20:05:10;;;;;;;2.90;2.60;;;14.00;82.70;;;;;;5014221;28;20314;-87
2021/10/19 20:07:37;;;;;;;2.95;2.30;;;14.10;83.20;;;;;;5020111;28;20200;-89
2021/10/19 20:10:06;;;;;;;3.35;2.22;;;14.00;83.80;;;;;;5017456;28;20318;-90
2021/10/19 20:12:33;;;;;;;2.97;2.60;;;14.00;82.00;;;;;;5020390;28;20234;-89
2021/10/19 20:15:00;;;;;;;3.15;2.20;;;14.00;81.80;;;;;;5017154;28;20234;-90
2021/10/19 20:17:27;;;;;;;3.90;2.03;;;14.00;82.40;;;;;;5023229;28;20214;-89
2021/10/19 20:19:54;;;;;;;3.05;2.35;;;14.00;81.40;;;;;;5021047;28;20230;-89
2021/10/19 20:22:23;;;;;;;5.15;2.22;;;14.00;81.60;;;;;;5019901;28;20198;-89
2021/10/19 20:24:50;;;;;;;3.55;2.70;;;14.00;82.50;;;;;;5025048;28;20278;-90
2021/10/19 20:27:17;;;;;;;4.82;2.70;;;14.00;83.20;;;;;;5021826;28;20190;-89
2021/10/19 20:29:44;;;;;;;6.03;4.38;;;14.00;82.00;;;;;;5022384;28;20206;-88
2021/10/19 20:32:11;;;;;;;6.97;4.03;;;14.00;82.70;;;;;;5034061;28;20226;-88
2021/10/19 20:34:38;;;;;;;3.78;2.97;;;14.00;83.70;;;;;;5025587;28;20711;-88
2021/10/19 20:37:09;;;;;;;2.85;2.55;;;14.00;83.90;;;;;;5019906;28;20203;-89
2021/10/19 20:39:37;;;;;;;3.10;2.63;;;14.00;84.50;;;;;;5021385;28;20207;-90
2021/10/19 20:42:06;;;;;;;3.10;2.63;;;14.00;84.80;;;;;;5028276;28;20200;-89
2021/10/19 20:44:33;;;;;;;3.60;2.38;;;14.00;85.30;;;;;;5027481;28;20234;-89
2021/10/19 20:47:00;;;;;;;3.72;2.30;;;14.00;85.50;;;;;;5019932;28;20208;-88
2021/10/19 20:49:26;;;;;;;2.33;2.13;;;14.00;85.30;;;;;;5022483;28;20219;-88
2021/10/19 20:51:53;;;;;;;3.55;2.85;;;13.90;85.60;;;;;;5021918;28;20238;-89
2021/10/19 20:54:20;;;;;;;5.53;2.83;;;13.90;86.50;;;;;;5023660;28;20206;-91
2021/10/19 20:56:55;;;;;;;3.67;2.55;;;13.90;86.20;;;;;;5018712;28;20230;-93
2021/10/19 20:59:28;;;;;;;3.85;2.47;;;13.90;86.60;;;;;;5016524;28;20198;-90
2021/10/19 21:01:57;;;;;;;4.00;3.50;;;13.90;87.20;;;;;;5015362;28;20223;-88
2021/10/19 21:04:24;;;;;;;4.82;3.25;;;13.90;87.90;;;;;;5016213;28;20739;-89
2021/10/19 21:06:53;;;;;;;4.13;3.35;;;13.90;88.30;;;;;;5012093;28;20223;-90
2021/10/19 21:09:20;;;;;;;5.55;2.80;;;13.90;89.80;;;;;;5015863;28;20658;-89
2021/10/19 21:11:47;;;;;;;3.95;2.70;;;14.00;89.00;;;;;;5022576;28;20222;-88
2021/10/19 21:14:15;;;;;;;3.78;2.60;;;14.00;89.40;;;;;;5019989;28;20222;-89
2021/10/19 21:16:42;;;;;;;2.90;2.47;;;14.00;89.70;;;;;;5023624;28;20241;-88
2021/10/19 21:19:09;;;;;;;5.00;2.53;;;13.90;89.80;;;;;;5017426;28;20203;-89
2021/10/19 21:21:36;;;;;;;2.97;2.45;;;13.90;89.70;;;;;;5017242;28;20242;-89
2021/10/19 21:24:08;;;;;;;2.60;2.40;;;13.90;90.10;;;;;;5020960;28;20203;-88
2021/10/19 21:26:35;;;;;;;2.97;2.30;;;13.90;89.90;;;;;;5028969;28;20234;-90
2021/10/19 21:29:02;;;;;;;2.53;2.22;;;13.90;88.90;;;;;;5016432;28;20223;-88
2021/10/19 21:31:32;;;;;;;3.63;2.60;;;13.90;89.50;;;;;;5017886;28;20220;-89
2021/10/19 21:33:59;;;;;;;2.40;2.20;;;13.90;90.10;;;;;;5028937;28;20249;-88
2021/10/19 21:36:26;;;;;;;2.50;2.30;;;13.80;90.20;;;;;;5023312;28;20318;-88
2021/10/19 21:38:53;;;;;;;2.63;2.30;;;13.90;90.10;;;;;;5024134;28;20211;-93
2021/10/19 21:41:22;;;;;;;2.95;2.50;;;13.90;90.20;;;;;;5030914;28;20229;-88
2021/10/19 21:43:50;;;;;;;4.35;2.55;;;13.90;90.40;;;;;;5024297;28;20203;-89
2021/10/19 21:46:21;;;;;;;2.75;2.55;;;13.90;90.30;;;;;;5022685;28;20234;-88
2021/10/19 21:48:53;;;;;;;2.67;2.30;;;13.90;90.40;;;;;;5029673;28;20215;-89
2021/10/19 21:51:20;;;;;;;2.42;2.22;;;13.90;91.20;;;;;;5022185;28;20702;-89
2021/10/19 21:53:47;;;;;;;4.18;2.40;;;13.90;91.20;;;;;;5024881;28;20219;-90
2021/10/19 21:56:16;;;;;;;2.47;2.28;;;13.80;91.20;;;;;;5016700;28;20227;-89
2021/10/19 21:58:47;;;;;;;2.58;1.90;;;13.80;91.20;;;;;;5020213;28;20215;-89
2021/10/19 22:01:15;;;;;;;2.75;2.30;;;13.80;91.20;;;;;;5021576;28;20227;-89
2021/10/19 22:03:42;;;;;;;2.42;2.10;;;13.80;91.20;;;;;;5024387;28;20202;-89
2021/10/19 22:06:10;;;;;;;2.63;2.42;;;13.80;91.20;;;;;;5023226;28;20309;-92
2021/10/19 22:08:37;;;;;;;3.13;2.55;;;13.80;91.20;;;;;;5025123;28;20565;-90
2021/10/19 22:11:05;;;;;;;3.35;2.10;;;13.80;91.20;;;;;;5013276;28;20231;-89
2021/10/19 22:13:32;;;;;;;2.30;2.10;;;13.70;91.20;;;;;;5017062;28;20250;-89
2021/10/19 22:16:01;;;;;;;2.17;1.95;;;13.70;91.20;;;;;;5015047;28;20241;-89
2021/10/19 22:18:28;;;;;;;2.55;2.10;;;13.70;91.20;;;;;;5017914;28;20600;-89
2021/10/19 22:20:55;;;;;;;2.60;2.00;;;13.60;91.10;;;;;;5019751;28;20230;-90
2021/10/19 22:26:14;;;;;;;3.58;2.00;;;13.60;91.40;;;;;;5021867;28;20227;-88
2021/10/19 22:28:41;;;;;;;2.00;1.80;;;13.50;91.90;;;;;;5019530;28;20199;-89
2021/10/19 22:31:09;;;;;;;2.10;1.85;;;13.50;92.10;;;;;;5019780;28;20227;-89
2021/10/19 22:34:01;;;;;;;2.30;2.10;;;13.40;92.20;;;;;;5020416;28;20219;-88
2021/10/19 22:36:28;;;;;;;3.38;2.10;;;13.40;92.20;;;;;;5022431;28;20666;-88
2021/10/19 22:38:57;;;;;;;2.20;2.00;;;13.40;92.70;;;;;;5023059;28;20428;-88
2021/10/19 22:41:24;;;;;;;1.92;1.73;;;13.30;92.40;;;;;;5028950;28;20234;-88
2021/10/19 22:43:51;;;;;;;2.85;1.98;;;13.30;92.40;;;;;;5029882;28;20651;-88
2021/10/19 22:46:19;;;;;;;2.47;2.00;;;13.30;92.50;;;;;;5024358;28;20230;-89
2021/10/19 22:48:50;;;;;;;2.78;2.20;;;13.20;92.40;;;;;;5025082;28;20231;-88
2021/10/19 22:51:28;;;;;;;3.67;2.20;;;13.20;92.50;;;;;;5030702;28;20199;-89
2021/10/19 22:54:36;;;;;;;4.60;2.28;;;13.10;92.80;;;;;;5025575;28;20207;-89
2021/10/19 23:07:50;;;;;;;2.28;1.80;;;12.40;94.50;;;;;;5023900;28;20331;-88
2021/10/19 23:10:18;;;;;;;1.85;1.65;;;12.40;94.70;;;;;;5023022;28;20698;-88
2021/10/19 23:28:21;;;;;;;2.05;1.80;;;12.10;95.30;;;;;;5144788;22;20291;-88
2021/10/19 23:30:48;;;;;;;3.15;1.88;;;12.10;95.50;;;;;;5024301;28;20555;-87
2021/10/19 23:33:16;;;;;;;1.95;1.67;;;12.00;95.70;;;;;;5023155;28;20218;-87
2021/10/19 23:39:06;;;;;;;2.13;1.80;;;11.90;95.70;;;;;;5017818;28;20177;-87
2021/10/19 23:41:33;;;;;;;2.30;1.85;;;11.90;96.10;;;;;;5021744;28;20226;-90
2021/10/19 23:44:34;;;;;;;2.45;1.85;;;11.80;96.10;;;;;;5015598;28;20294;-90
2021/10/19 23:47:01;;;;;;;4.20;2.10;;;11.70;96.10;;;;;;5015851;28;20226;-89
2021/10/19 23:49:28;;;;;;;2.78;2.08;;;11.70;96.10;;;;;;5017708;28;20555;-89
2021/10/19 23:51:55;;;;;;;2.13;1.77;;;11.70;96.10;;;;;;5017552;28;20615;-88
2021/10/19 23:54:22;;;;;;;2.10;1.90;;;11.70;96.10;;;;;;5032528;28;20219;-88
2021/10/19 23:56:59;;;;;;;3.10;2.20;;;11.70;96.10;;;;;;5029580;28;20239;-88
2021/10/19 23:59:26;;;;;;;3.15;2.20;;;11.60;96.10;;;;;;5037766;28;20631;-89
